createdAt,value
2022-11-23T00:01:37.956Z,4.63
2022-11-23T00:04:10.631Z,4.61
2022-11-23T00:06:44.432Z,4.64
2022-11-23T00:09:25.970Z,4.74
2022-11-23T00:15:43.830Z,4.59
2022-11-23T00:18:10.652Z,4.50
2022-11-23T00:20:39.682Z,4.47
2022-11-23T00:23:06.321Z,4.41
2022-11-23T00:25:34.206Z,4.41
2022-11-23T00:28:00.761Z,4.39
2022-11-23T00:30:28.924Z,4.35
2022-11-23T00:32:56.269Z,4.25
2022-11-23T00:35:23.777Z,4.19
2022-11-23T00:37:50.316Z,4.15
2022-11-23T00:40:17.073Z,4.14
2022-11-23T00:42:43.566Z,4.16
2022-11-23T00:45:10.615Z,4.15
2022-11-23T00:47:37.367Z,4.09
2022-11-23T00:50:04.173Z,4.11
2022-11-23T00:52:30.894Z,4.08
2022-11-23T00:54:57.548Z,4.01
2022-11-23T00:57:24.184Z,3.98
2022-11-23T00:59:50.980Z,4.07
2022-11-23T01:02:17.491Z,3.94
2022-11-23T01:04:44.022Z,4.03
2022-11-23T01:07:10.755Z,4.00
2022-11-23T01:09:37.441Z,3.91
2022-11-23T01:12:04.095Z,3.84
2022-11-23T01:14:30.719Z,3.84
2022-11-23T01:16:57.285Z,3.78
2022-11-23T01:19:24.144Z,3.71
2022-11-23T01:21:51.109Z,3.68
2022-11-23T01:24:22.611Z,3.69
2022-11-23T01:26:54.253Z,3.61
2022-11-23T01:29:24.439Z,3.54
2022-11-23T01:31:51.077Z,3.50
2022-11-23T01:34:17.850Z,3.61
2022-11-23T01:36:45.249Z,3.63
2022-11-23T01:39:12.180Z,3.56
2022-11-23T01:41:41.257Z,3.57
2022-11-23T01:44:31.093Z,3.49
2022-11-23T01:46:59.894Z,3.46
2022-11-23T01:49:31.439Z,3.54
2022-11-23T01:52:02.252Z,3.55
2022-11-23T01:54:36.571Z,3.49
2022-11-23T01:57:17.656Z,3.50
2022-11-23T01:59:46.398Z,3.54
2022-11-23T02:02:14.894Z,3.42
2022-11-23T02:04:45.898Z,3.35
2022-11-23T02:07:14.737Z,3.27
2022-11-23T02:09:42.629Z,3.31
2022-11-23T02:12:13.323Z,3.28
2022-11-23T02:14:41.855Z,3.33
2022-11-23T02:17:08.838Z,3.32
2022-11-23T02:19:47.680Z,3.39
2022-11-23T02:22:24.006Z,3.41
2022-11-23T02:24:54.056Z,3.48
2022-11-23T02:27:21.282Z,3.64
2022-11-23T02:29:48.571Z,3.63
2022-11-23T02:32:24.689Z,3.63
2022-11-23T02:34:51.452Z,3.70
2022-11-23T02:37:18.689Z,3.66
2022-11-23T02:39:49.425Z,3.75
2022-11-23T02:42:15.959Z,3.82
2022-11-23T02:45:00.334Z,3.73
2022-11-23T02:47:26.998Z,3.71
2022-11-23T02:49:53.613Z,3.77
2022-11-23T02:52:20.874Z,3.85
2022-11-23T02:54:47.509Z,3.89
2022-11-23T02:57:14.445Z,3.92
2022-11-23T02:59:40.980Z,3.89
2022-11-23T03:02:09.749Z,3.95
2022-11-23T03:04:36.410Z,3.96
2022-11-23T03:07:02.959Z,3.99
2022-11-23T03:09:29.815Z,3.99
2022-11-23T03:11:56.572Z,4.03
2022-11-23T03:14:23.181Z,3.93
2022-11-23T03:16:49.742Z,3.86
2022-11-23T03:19:16.317Z,3.88
2022-11-23T03:21:42.908Z,3.86
2022-11-23T03:24:09.527Z,3.84
2022-11-23T03:26:36.279Z,3.83
2022-11-23T03:29:02.904Z,3.95
2022-11-23T03:31:29.435Z,3.96
2022-11-23T03:33:56.038Z,4.05
2022-11-23T03:36:22.867Z,4.09
2022-11-23T03:38:49.522Z,4.07
2022-11-23T03:41:16.122Z,4.15
2022-11-23T03:43:42.771Z,4.16
2022-11-23T03:46:09.439Z,4.09
2022-11-23T03:48:35.990Z,4.06
2022-11-23T03:51:02.597Z,4.18
2022-11-23T03:53:29.245Z,4.21
2022-11-23T03:55:57.556Z,4.27
2022-11-23T03:58:24.185Z,4.28
2022-11-23T04:00:54.635Z,4.21
2022-11-23T04:03:21.263Z,4.18
2022-11-23T04:05:47.875Z,4.20
2022-11-23T04:08:14.446Z,4.24
2022-11-23T04:10:41.049Z,4.21
2022-11-23T04:13:08.837Z,4.20
2022-11-23T04:15:38.581Z,4.26
2022-11-23T04:18:05.318Z,4.23
2022-11-23T04:20:31.984Z,4.28
2022-11-23T04:22:58.587Z,4.27
2022-11-23T04:25:25.191Z,4.26
2022-11-23T04:27:51.768Z,4.31
2022-11-23T04:30:18.473Z,4.30
2022-11-23T04:32:45.797Z,4.28
2022-11-23T04:35:12.746Z,4.32
2022-11-23T04:37:39.638Z,4.36
2022-11-23T04:40:06.919Z,4.42
2022-11-23T04:42:33.630Z,4.44
2022-11-23T04:45:00.174Z,4.44
2022-11-23T04:47:26.796Z,4.50
2022-11-23T04:49:53.312Z,4.48
2022-11-23T04:52:19.930Z,4.41
2022-11-23T04:54:46.573Z,4.50
2022-11-23T04:57:13.174Z,4.50
2022-11-23T04:59:42.368Z,4.56
2022-11-23T05:02:10.253Z,4.52
2022-11-23T05:04:36.956Z,4.48
2022-11-23T05:07:03.838Z,4.48
2022-11-23T05:09:31.189Z,4.50
2022-11-23T05:11:58.112Z,4.44
2022-11-23T05:14:24.749Z,4.41
2022-11-23T05:16:51.470Z,4.41
2022-11-23T05:19:18.265Z,4.45
2022-11-23T05:21:44.934Z,4.44
2022-11-23T05:24:11.542Z,4.52
2022-11-23T05:26:38.126Z,4.55
2022-11-23T05:29:07.302Z,4.52
2022-11-23T05:31:34.061Z,4.52
2022-11-23T05:34:00.642Z,4.50
2022-11-23T05:36:27.257Z,4.49
2022-11-23T05:38:53.872Z,4.43
2022-11-23T05:41:20.467Z,4.47
2022-11-23T05:43:47.075Z,4.45
2022-11-23T05:46:13.670Z,4.39
2022-11-23T05:48:40.246Z,4.40
2022-11-23T05:51:07.049Z,4.40
2022-11-23T05:53:33.751Z,4.37
2022-11-23T05:56:01.397Z,4.37
2022-11-23T05:58:28.826Z,4.38
2022-11-23T06:01:04.661Z,4.41
2022-11-23T06:03:31.352Z,4.42
2022-11-23T06:06:00.292Z,4.46
2022-11-23T06:08:27.151Z,4.44
2022-11-23T06:10:53.875Z,4.45
2022-11-23T06:13:23.750Z,4.52
2022-11-23T06:15:50.482Z,4.51
2022-11-23T06:18:17.225Z,4.58
2022-11-23T06:20:44.075Z,4.61
2022-11-23T06:23:10.728Z,4.64
2022-11-23T06:25:39.287Z,4.58
2022-11-23T06:28:07.607Z,4.63
2022-11-23T06:30:37.519Z,4.67
2022-11-23T06:33:08.072Z,4.67
2022-11-23T06:35:35.203Z,4.71
2022-11-23T06:38:02.118Z,4.64
2022-11-23T06:40:29.141Z,4.66
2022-11-23T06:43:01.772Z,4.64
2022-11-23T06:45:28.611Z,4.63
2022-11-23T06:47:56.841Z,4.62
2022-11-23T06:50:23.912Z,4.60
2022-11-23T06:52:55.354Z,4.61
2022-11-23T06:55:22.386Z,4.57
2022-11-23T06:57:49.317Z,4.63
2022-11-23T07:00:16.649Z,4.63
2022-11-23T07:02:43.505Z,4.61
2022-11-23T07:05:10.341Z,4.71
2022-11-23T07:07:37.320Z,4.73
2022-11-23T07:10:07.182Z,4.67
2022-11-23T07:12:34.444Z,4.60
2022-11-23T07:15:01.264Z,4.73
2022-11-23T07:17:28.107Z,4.75
2022-11-23T07:19:55.042Z,4.82
2022-11-23T07:22:25.003Z,4.82
2022-11-23T07:24:51.762Z,4.82
2022-11-23T07:27:18.580Z,4.85
2022-11-23T07:29:45.249Z,4.81
2022-11-23T07:32:14.591Z,4.82
2022-11-23T07:34:41.264Z,4.89
2022-11-23T07:37:08.134Z,4.90
2022-11-23T07:39:56.419Z,4.90
2022-11-23T07:42:33.408Z,4.97
2022-11-23T07:45:01.956Z,4.92
2022-11-23T07:47:29.001Z,5.02
2022-11-23T07:50:09.191Z,5.02
2022-11-23T07:52:42.225Z,5.08
2022-11-23T07:55:09.550Z,5.17
2022-11-23T07:57:36.295Z,5.18
2022-11-23T08:00:04.199Z,5.23
2022-11-23T08:02:31.008Z,5.17
2022-11-23T08:05:02.995Z,5.23
2022-11-23T08:07:29.984Z,5.22
2022-11-23T08:09:56.972Z,5.24
2022-11-23T08:12:23.842Z,5.26
2022-11-23T08:14:50.622Z,5.29
2022-11-23T08:17:17.470Z,5.28
2022-11-23T08:19:46.515Z,5.34
2022-11-23T08:22:15.741Z,5.36
2022-11-23T08:24:42.881Z,5.40
2022-11-23T08:27:09.529Z,5.44
2022-11-23T08:29:36.372Z,5.48
2022-11-23T08:32:03.320Z,5.51
2022-11-23T08:34:30.398Z,5.56
2022-11-23T08:36:57.592Z,5.61
2022-11-23T08:39:24.513Z,5.62
2022-11-23T08:41:54.163Z,5.61
2022-11-23T08:44:20.880Z,5.69
2022-11-23T08:46:47.934Z,5.75
2022-11-23T08:49:14.550Z,5.86
2022-11-23T08:51:45.648Z,5.94
2022-11-23T08:54:15.372Z,5.89
2022-11-23T08:56:42.264Z,5.94
2022-11-23T08:59:09.422Z,6.05
2022-11-23T09:01:36.224Z,6.11
2022-11-23T09:04:05.837Z,6.17
2022-11-23T09:06:35.848Z,6.23
2022-11-23T09:09:07.943Z,6.29
2022-11-23T09:11:34.903Z,6.33
2022-11-23T09:14:05.732Z,6.40
2022-11-23T09:16:35.037Z,6.49
2022-11-23T09:19:02.630Z,6.58
2022-11-23T09:21:33.390Z,6.70
2022-11-23T09:24:02.855Z,6.77
2022-11-23T09:26:32.061Z,6.80
2022-11-23T09:28:58.890Z,6.89
2022-11-23T09:31:29.010Z,6.95
2022-11-23T09:33:55.925Z,6.96
2022-11-23T09:36:25.500Z,6.99
2022-11-23T09:38:57.670Z,7.02
2022-11-23T09:41:35.891Z,7.15
2022-11-23T09:44:13.199Z,7.17
2022-11-23T09:47:07.806Z,7.21
2022-11-23T09:49:57.813Z,7.25
2022-11-23T09:52:26.708Z,7.28
2022-11-23T09:54:58.854Z,7.38
2022-11-23T09:57:34.337Z,7.44
2022-11-23T10:00:10.178Z,7.46
2022-11-23T10:02:44.568Z,7.44
2022-11-23T10:05:18.072Z,7.55
2022-11-23T10:08:22.920Z,7.67
2022-11-23T10:11:04.686Z,7.73
2022-11-23T10:13:40.112Z,7.77
2022-11-23T10:16:34.111Z,7.68
2022-11-23T10:19:17.486Z,7.87
2022-11-23T10:21:52.930Z,7.95
2022-11-23T10:24:25.906Z,8.01
2022-11-23T10:26:52.609Z,8.04
2022-11-23T10:29:25.648Z,8.17
2022-11-23T10:31:57.004Z,8.22
2022-11-23T10:34:44.318Z,8.26
2022-11-23T10:37:12.526Z,8.30
2022-11-23T10:39:39.483Z,8.26
2022-11-23T10:42:23.204Z,8.21
2022-11-23T10:45:04.700Z,8.19
2022-11-23T10:47:38.859Z,8.20
2022-11-23T10:50:20.672Z,8.22
2022-11-23T10:52:56.032Z,8.26
2022-11-23T10:55:27.451Z,8.26
2022-11-23T10:57:55.346Z,8.30
2022-11-23T11:00:30.934Z,8.38
2022-11-23T11:03:02.454Z,8.41
2022-11-23T11:08:32.586Z,8.57
2022-11-23T11:11:21.124Z,8.61
2022-11-23T11:13:50.495Z,8.62
2022-11-23T11:16:33.911Z,8.67
2022-11-23T11:19:26.258Z,8.82
2022-11-23T11:22:01.328Z,8.88
2022-11-23T11:24:33.890Z,8.93
2022-11-23T11:27:12.888Z,9.04
2022-11-23T11:29:44.793Z,9.12
2022-11-23T11:32:19.930Z,9.10
2022-11-23T11:34:57.062Z,9.15
2022-11-23T11:37:37.055Z,9.14
2022-11-23T11:40:18.851Z,9.02
2022-11-23T11:43:00.779Z,9.02
2022-11-23T11:45:34.355Z,9.04
2022-11-23T11:48:14.413Z,9.14
2022-11-23T11:50:57.297Z,9.13
2022-11-23T11:53:36.426Z,9.07
2022-11-23T11:56:32.635Z,8.99
2022-11-23T11:59:43.062Z,8.97
2022-11-23T12:02:23.755Z,8.88
2022-11-23T12:05:21.476Z,8.76
2022-11-23T12:08:13.166Z,8.73
2022-11-23T12:10:59.707Z,8.65
2022-11-23T12:13:38.963Z,8.59
2022-11-23T12:16:31.202Z,8.61
2022-11-23T12:19:35.284Z,8.62
2022-11-23T12:22:29.163Z,8.61
2022-11-23T12:25:25.517Z,8.53
2022-11-23T12:28:19.660Z,8.50
2022-11-23T12:31:09.879Z,8.43
2022-11-23T12:34:14.837Z,8.45
2022-11-23T12:36:51.417Z,8.38
2022-11-23T12:39:37.039Z,8.45
2022-11-23T12:42:50.758Z,8.50
2022-11-23T12:45:44.416Z,8.39
2022-11-23T12:48:15.830Z,8.40
2022-11-23T12:51:10.573Z,8.41
2022-11-23T12:54:08.810Z,8.36
2022-11-23T12:57:16.428Z,8.35
2022-11-23T13:00:02.497Z,8.45
2022-11-23T13:02:54.398Z,8.45
2022-11-23T13:05:30.342Z,8.40
2022-11-23T13:08:48.913Z,8.45
2022-11-23T13:11:38.516Z,8.54
2022-11-23T13:15:00.029Z,8.54
2022-11-23T13:21:57.951Z,8.60
2022-11-23T13:29:44.094Z,8.53
2022-11-23T13:33:13.889Z,8.52
2022-11-23T13:40:08.615Z,8.62
2022-11-23T13:43:42.035Z,8.66
2022-11-23T13:46:40.071Z,8.67
2022-11-23T13:49:36.298Z,8.68
2022-11-23T13:52:29.007Z,8.68
2022-11-23T14:00:39.729Z,8.69
2022-11-23T14:03:49.272Z,8.63
2022-11-23T14:06:25.190Z,8.66
2022-11-23T14:09:04.313Z,8.65
2022-11-23T14:11:54.753Z,8.66
2022-11-23T14:14:26.303Z,8.58
2022-11-23T14:17:09.461Z,8.56
2022-11-23T14:20:14.021Z,8.61
2022-11-23T14:22:53.917Z,8.56
2022-11-23T14:25:26.210Z,8.61
2022-11-23T14:28:26.897Z,8.55
2022-11-23T14:31:02.745Z,8.47
2022-11-23T14:33:53.514Z,8.45
2022-11-23T14:36:42.190Z,8.40
2022-11-23T14:39:33.101Z,8.42
2022-11-23T14:42:01.746Z,8.32
2022-11-23T14:44:35.573Z,8.26
2022-11-23T14:47:08.846Z,8.27
2022-11-23T14:49:36.197Z,8.22
2022-11-23T14:52:04.913Z,8.14
2022-11-23T14:54:32.378Z,8.10
2022-11-23T14:57:02.800Z,7.99
2022-11-23T14:59:40.683Z,8.04
2022-11-23T15:02:16.415Z,8.00
2022-11-23T15:05:07.536Z,7.86
2022-11-23T15:07:47.684Z,7.77
2022-11-23T15:10:37.473Z,7.75
2022-11-23T15:13:17.830Z,7.69
2022-11-23T15:15:45.657Z,7.70
2022-11-23T15:18:12.125Z,7.59
2022-11-23T15:20:44.647Z,7.51
2022-11-23T15:23:21.407Z,7.44
2022-11-23T15:25:55.356Z,7.47
2022-11-23T15:28:34.194Z,7.43
2022-11-23T15:31:00.654Z,7.45
2022-11-23T15:33:27.889Z,7.28
2022-11-23T15:35:54.812Z,7.09
2022-11-23T15:38:23.843Z,7.07
2022-11-23T15:40:51.466Z,7.07
2022-11-23T15:43:19.850Z,7.09
2022-11-23T15:45:46.332Z,7.02
2022-11-23T15:48:36.940Z,6.85
2022-11-23T15:51:06.197Z,6.65
2022-11-23T15:53:43.673Z,6.61
2022-11-23T15:56:21.217Z,6.69
2022-11-23T15:58:49.627Z,6.62
2022-11-23T16:01:17.020Z,6.49
2022-11-23T16:03:53.604Z,6.47
2022-11-23T16:06:24.597Z,6.44
2022-11-23T16:08:51.486Z,6.30
2022-11-23T16:11:36.385Z,6.17
2022-11-23T16:14:18.652Z,6.22
2022-11-23T16:16:48.305Z,6.26
2022-11-23T16:19:28.827Z,6.23
2022-11-23T16:22:02.637Z,6.19
2022-11-23T16:24:31.932Z,6.15
2022-11-23T16:26:59.317Z,6.05
2022-11-23T16:29:30.048Z,5.99
2022-11-23T16:31:58.494Z,5.92
2022-11-23T16:34:27.154Z,5.93
2022-11-23T16:36:55.763Z,5.93
2022-11-23T16:39:24.183Z,5.86
2022-11-23T16:41:52.123Z,5.74
2022-11-23T16:44:18.973Z,5.79
2022-11-23T16:46:47.488Z,5.67
2022-11-23T16:49:18.372Z,5.62
2022-11-23T16:51:45.180Z,5.65
2022-11-23T16:54:14.172Z,5.67
2022-11-23T16:56:43.209Z,5.67
2022-11-23T16:59:16.505Z,5.66
2022-11-23T17:01:45.734Z,5.60
2022-11-23T17:04:14.941Z,5.40
2022-11-23T17:06:42.753Z,5.38
2022-11-23T17:09:10.040Z,5.43
2022-11-23T17:11:40.634Z,5.44
2022-11-23T17:14:18.511Z,5.42
2022-11-23T17:16:45.746Z,5.37
2022-11-23T17:19:18.357Z,5.30
2022-11-23T17:21:48.654Z,5.38
2022-11-23T17:24:15.163Z,5.26
2022-11-23T17:26:49.174Z,5.29
2022-11-23T17:29:19.469Z,5.29
2022-11-23T17:31:47.103Z,5.19
2022-11-23T17:34:14.530Z,5.12
2022-11-23T17:36:46.441Z,5.03
2022-11-23T17:39:20.871Z,5.05
2022-11-23T17:41:48.230Z,4.93
2022-11-23T17:44:15.731Z,4.86
2022-11-23T17:46:42.874Z,4.79
2022-11-23T17:49:12.740Z,4.73
2022-11-23T17:51:39.245Z,4.80
2022-11-23T17:54:05.707Z,4.78
2022-11-23T17:56:32.145Z,4.78
2022-11-23T17:58:58.763Z,4.73
2022-11-23T18:01:25.512Z,4.59
2022-11-23T18:03:52.576Z,4.55
2022-11-23T18:06:24.021Z,4.64
2022-11-23T18:08:51.997Z,4.52
2022-11-23T18:11:19.774Z,4.46
2022-11-23T18:13:50.589Z,4.44
2022-11-23T18:16:18.236Z,4.46
2022-11-23T18:18:45.003Z,4.35
2022-11-23T18:21:14.123Z,4.35
2022-11-23T18:23:42.278Z,4.39
2022-11-23T18:26:25.790Z,4.35
2022-11-23T18:28:52.765Z,4.35
2022-11-23T18:31:19.813Z,4.25
2022-11-23T18:33:46.442Z,4.20
2022-11-23T18:36:16.120Z,4.10
2022-11-23T18:38:46.403Z,4.11
2022-11-23T18:41:16.131Z,4.16
2022-11-23T18:43:43.697Z,4.13
2022-11-23T18:46:11.922Z,4.07
2022-11-23T18:48:38.850Z,3.98
2022-11-23T18:51:05.736Z,3.96
2022-11-23T18:53:32.666Z,3.94
2022-11-23T18:56:06.744Z,3.92
2022-11-23T18:58:34.552Z,3.91
2022-11-23T19:01:27.637Z,3.80
2022-11-23T19:03:54.204Z,3.83
2022-11-23T19:06:22.622Z,3.74
2022-11-23T19:08:54.134Z,3.69
2022-11-23T19:11:23.027Z,3.69
2022-11-23T19:13:51.485Z,3.60
2022-11-23T19:16:23.815Z,3.51
2022-11-23T19:18:58.087Z,3.55
2022-11-23T19:21:26.860Z,3.59
2022-11-23T19:23:54.928Z,3.55
2022-11-23T19:26:22.245Z,3.63
2022-11-23T19:28:49.637Z,3.61
2022-11-23T19:31:21.603Z,3.56
2022-11-23T19:33:49.321Z,3.69
2022-11-23T19:36:18.431Z,3.62
2022-11-23T19:38:45.733Z,3.63
2022-11-23T19:41:12.294Z,3.66
2022-11-23T19:43:39.013Z,3.65
2022-11-23T19:46:07.410Z,3.73
2022-11-23T19:48:34.676Z,3.80
2022-11-23T19:51:05.821Z,3.93
2022-11-23T19:53:37.277Z,3.92
2022-11-23T19:56:11.162Z,3.92
2022-11-23T19:58:38.060Z,3.90
2022-11-23T20:01:07.316Z,3.88
2022-11-23T20:03:34.536Z,3.90
2022-11-23T20:06:03.040Z,3.88
2022-11-23T20:08:29.566Z,3.92
2022-11-23T20:10:56.666Z,3.90
2022-11-23T20:13:23.757Z,3.95
2022-11-23T20:15:50.619Z,3.97
2022-11-23T20:18:18.111Z,4.09
2022-11-23T20:20:47.185Z,4.20
2022-11-23T20:23:14.824Z,4.23
2022-11-23T20:25:42.382Z,4.22
2022-11-23T20:28:13.245Z,4.32
2022-11-23T20:30:42.470Z,4.38
2022-11-23T20:33:10.003Z,4.45
2022-11-23T20:35:36.586Z,4.44
2022-11-23T20:38:03.724Z,4.49
2022-11-23T20:40:30.694Z,4.51
2022-11-23T20:42:58.201Z,4.53
2022-11-23T20:45:25.786Z,4.56
2022-11-23T20:47:55.111Z,4.51
2022-11-23T20:50:26.916Z,4.49
2022-11-23T20:53:03.987Z,4.49
2022-11-23T20:55:31.880Z,4.52
2022-11-23T20:57:58.302Z,4.43
2022-11-23T21:00:25.304Z,4.44
2022-11-23T21:02:53.339Z,4.41
2022-11-23T21:05:20.590Z,4.35
2022-11-23T21:07:48.239Z,4.38
2022-11-23T21:10:34.306Z,4.38
2022-11-23T21:13:19.944Z,4.38
2022-11-23T21:15:46.555Z,4.37
2022-11-23T21:18:13.244Z,4.33
2022-11-23T21:20:40.875Z,4.30
2022-11-23T21:23:07.364Z,4.33
2022-11-23T21:25:35.515Z,4.28
2022-11-23T21:28:03.209Z,4.34
2022-11-23T21:30:30.750Z,4.25
2022-11-23T21:32:57.449Z,4.30
2022-11-23T21:35:24.022Z,4.35
2022-11-23T21:37:50.455Z,4.38
2022-11-23T21:40:16.905Z,4.37
2022-11-23T21:42:44.605Z,4.37
2022-11-23T21:45:11.105Z,4.33
2022-11-23T21:47:37.516Z,4.32
2022-11-23T21:50:04.506Z,4.38
2022-11-23T21:52:30.917Z,4.38
2022-11-23T21:54:57.381Z,4.38
2022-11-23T21:57:23.820Z,4.42
2022-11-23T21:59:50.309Z,4.44
2022-11-23T22:02:16.837Z,4.45
2022-11-23T22:04:43.322Z,4.46
2022-11-23T22:07:09.836Z,4.45
2022-11-23T22:09:37.956Z,4.39
2022-11-23T22:12:04.595Z,4.40
2022-11-23T22:14:31.256Z,4.41
2022-11-23T22:16:58.185Z,4.36
2022-11-23T22:19:24.721Z,4.44
2022-11-23T22:21:51.292Z,4.47
2022-11-23T22:24:19.481Z,4.42
2022-11-23T22:26:46.278Z,4.47
2022-11-23T22:29:13.051Z,4.53
2022-11-23T22:31:40.076Z,4.53
2022-11-23T22:34:09.930Z,4.49
2022-11-23T22:36:36.485Z,4.55
2022-11-23T22:39:05.698Z,4.56
2022-11-23T22:41:37.330Z,4.53
2022-11-23T22:44:09.290Z,4.62
2022-11-23T22:46:39.820Z,4.67
2022-11-23T22:49:06.495Z,4.66
2022-11-23T22:51:33.319Z,4.68
2022-11-23T22:54:01.285Z,4.67
2022-11-23T22:56:29.692Z,4.65
2022-11-23T22:58:56.504Z,4.75
2022-11-23T23:01:26.068Z,4.73
2022-11-23T23:03:58.122Z,4.75
2022-11-23T23:06:27.498Z,4.83
2022-11-23T23:08:55.876Z,4.80
2022-11-23T23:11:23.257Z,4.78
2022-11-23T23:13:49.860Z,4.79
2022-11-23T23:16:16.406Z,4.83
2022-11-23T23:18:43.830Z,4.83
2022-11-23T23:21:14.087Z,4.86
2022-11-23T23:23:42.928Z,4.95
2022-11-23T23:26:10.916Z,4.98
2022-11-23T23:28:37.736Z,4.98
2022-11-23T23:31:07.554Z,4.92
2022-11-23T23:33:34.499Z,4.94
2022-11-23T23:36:09.559Z,4.95
2022-11-23T23:38:37.138Z,4.99
2022-11-23T23:41:05.073Z,5.02
2022-11-23T23:43:32.082Z,5.00
2022-11-23T23:46:00.697Z,5.02
2022-11-23T23:48:33.658Z,4.88
2022-11-23T23:51:16.672Z,4.88
2022-11-23T23:53:44.509Z,5.02
2022-11-23T23:56:34.547Z,5.11
2022-11-23T23:59:01.024Z,5.10
